Etihad Airways Virtual Airport Information Service

Jakarta Soekarno Hatta International Airport

ICAO: WIII Country: Indonesia
Latitude: -6.12556 Longitude: 106.656
Latest Arrival : ETD474 (OMAA-WIII) Latest Departure : QTR957 (WIII-OTHH)


WX CaptureLIVE
Data provided by noaa.gov | Recorded at 22:21:32

METAR : WIII 182200Z 22006KT 4000 HZ FEW020 26/24 Q1010 NOSIG

TAF : WIII 181700Z 1818/2000 VRB02KT 5000 HZ SCT020 BECMG 1901/1903 06011KT 9000 NSW TEMPO 1906/1910 5000 -TSRA FEW018CB BKN019


Runway Data for WIII
Data provided by openaviationdata.com

Runway ID Mag Var Hdg Length Elevation Surface ILS Freq ILS Id ILS Slope

Jakarta Soekarno Hatta International Airport, Indonesia
Use only for reference purposes